Time;durP1;ratioP1;P1;durP2;ratioP2;P2;SDS_P1;SDS_P2;PMS_P1;PMS_P2;Temp;Humidity;BMP_temperature;BMP_pressure;BME280_temperature;BME280_humidity;BME280_pressure;Samples;Min_cycle;Max_cycle;Signal;HPM_P1;HPM_P2
2023/07/31 00:00:41;;;;;;;7.05;2.00;;;;;;;;;;5091642;28;20394;-68
2023/07/31 00:03:06;;;;;;;2.85;1.40;;;;;;;;;;5092927;28;20529;-68
2023/07/31 00:05:31;;;;;;;6.60;2.45;;;;;;;;;;5093658;28;20584;-68
2023/07/31 00:07:56;;;;;;;4.32;1.58;;;;;;;;;;5094425;28;20515;-67
2023/07/31 00:10:22;;;;;;;5.05;1.70;;;;;;;;;;5090870;28;20012;-67
2023/07/31 00:12:47;;;;;;;5.88;1.65;;;;;;;;;;5102558;28;20028;-67
2023/07/31 00:15:13;;;;;;;3.08;1.50;;;;;;;;;;5100292;28;20040;-68
2023/07/31 00:17:38;;;;;;;4.28;1.45;;;;;;;;;;5094284;28;20015;-67
2023/07/31 00:20:04;;;;;;;3.97;1.60;;;;;;;;;;5092025;28;20020;-67
2023/07/31 00:22:29;;;;;;;4.68;1.70;;;;;;;;;;5099285;28;20023;-68
2023/07/31 00:24:55;;;;;;;4.80;1.88;;;;;;;;;;5094032;28;20387;-68
2023/07/31 00:27:20;;;;;;;5.30;2.00;;;;;;;;;;5095847;28;20028;-66
2023/07/31 00:29:46;;;;;;;5.35;2.13;;;;;;;;;;5093388;28;20031;-68
2023/07/31 00:32:11;;;;;;;4.50;1.95;;;;;;;;;;5097628;28;20024;-68
2023/07/31 00:34:36;;;;;;;7.22;2.15;;;;;;;;;;5086232;28;20034;-67
2023/07/31 00:37:02;;;;;;;6.88;1.90;;;;;;;;;;5099054;28;20047;-67
2023/07/31 00:39:27;;;;;;;4.18;2.20;;;;;;;;;;5101849;28;20073;-67
2023/07/31 00:41:52;;;;;;;4.35;1.95;;;;;;;;;;5106279;28;20048;-67
2023/07/31 00:44:18;;;;;;;5.82;2.60;;;;;;;;;;5091913;28;20506;-67
2023/07/31 00:46:43;;;;;;;5.35;2.40;;;;;;;;;;5094072;28;20024;-66
2023/07/31 00:49:09;;;;;;;7.60;2.50;;;;;;;;;;5094130;28;20406;-67
2023/07/31 00:51:34;;;;;;;5.97;2.60;;;;;;;;;;5094215;28;20035;-66
2023/07/31 00:53:59;;;;;;;6.72;2.40;;;;;;;;;;5099231;28;20030;-67
2023/07/31 00:56:27;;;;;;;6.10;2.67;;;;;;;;;;5092161;28;20051;-66
2023/07/31 00:58:52;;;;;;;7.38;2.50;;;;;;;;;;5093761;28;20646;-67
2023/07/31 01:04:05;;;;;;;6.70;3.10;;;;;;;;;;5082816;28;20086;-62
2023/07/31 01:06:36;;;;;;;5.18;3.00;;;;;;;;;;5079579;28;20484;-66
2023/07/31 01:09:20;;;;;;;6.60;3.10;;;;;;;;;;5075474;28;20021;-65
2023/07/31 01:12:06;;;;;;;6.22;2.97;;;;;;;;;;5080166;28;20047;-64
2023/07/31 01:14:31;;;;;;;5.25;3.00;;;;;;;;;;5076008;28;20120;-64
2023/07/31 01:16:56;;;;;;;8.32;3.00;;;;;;;;;;5079954;28;20040;-65
2023/07/31 01:19:23;;;;;;;8.30;3.35;;;;;;;;;;5083370;28;20028;-65
2023/07/31 01:21:55;;;;;;;6.00;2.78;;;;;;;;;;5079290;28;20016;-65
2023/07/31 01:24:28;;;;;;;5.00;2.60;;;;;;;;;;5091771;28;20031;-65
2023/07/31 01:26:56;;;;;;;7.72;3.53;;;;;;;;;;5091078;28;20032;-65
2023/07/31 01:29:28;;;;;;;5.90;3.67;;;;;;;;;;5085663;28;20048;-63
2023/07/31 01:31:54;;;;;;;5.78;3.17;;;;;;;;;;5085455;28;20487;-65
2023/07/31 01:34:21;;;;;;;8.38;3.80;;;;;;;;;;5092564;28;20428;-64
2023/07/31 01:36:46;;;;;;;8.05;3.90;;;;;;;;;;5085150;28;20040;-65
2023/07/31 01:39:11;;;;;;;6.70;3.50;;;;;;;;;;5092725;28;20051;-67
2023/07/31 01:41:36;;;;;;;7.10;3.40;;;;;;;;;;5092744;28;20024;-65
2023/07/31 01:44:02;;;;;;;7.00;3.55;;;;;;;;;;5092335;28;20066;-65
2023/07/31 01:46:27;;;;;;;7.45;3.88;;;;;;;;;;5076138;28;20074;-65
2023/07/31 01:48:52;;;;;;;6.53;3.00;;;;;;;;;;5089146;28;20052;-65
2023/07/31 01:51:18;;;;;;;7.20;3.88;;;;;;;;;;5086137;28;20048;-66
2023/07/31 01:53:43;;;;;;;6.75;3.65;;;;;;;;;;5085204;28;20027;-66
2023/07/31 01:56:08;;;;;;;7.80;4.00;;;;;;;;;;5082884;28;20021;-65
2023/07/31 01:58:33;;;;;;;12.52;4.30;;;;;;;;;;5089876;28;20034;-64
2023/07/31 02:00:59;;;;;;;6.00;3.40;;;;;;;;;;5091251;28;20032;-65
2023/07/31 02:03:24;;;;;;;8.88;3.85;;;;;;;;;;5074867;28;20377;-65
2023/07/31 02:05:49;;;;;;;7.32;3.50;;;;;;;;;;5075124;28;20070;-64
2023/07/31 02:08:15;;;;;;;8.35;3.75;;;;;;;;;;5077444;28;20078;-65
2023/07/31 02:10:41;;;;;;;7.70;3.80;;;;;;;;;;5073059;28;20013;-64
2023/07/31 02:13:06;;;;;;;6.57;3.65;;;;;;;;;;5074014;28;20424;-65
2023/07/31 02:15:31;;;;;;;6.55;3.45;;;;;;;;;;5071700;28;20047;-67
2023/07/31 02:17:57;;;;;;;7.90;4.00;;;;;;;;;;5072660;28;20137;-68
2023/07/31 02:20:22;;;;;;;7.32;3.85;;;;;;;;;;5075734;28;20032;-68
2023/07/31 02:22:47;;;;;;;9.73;5.03;;;;;;;;;;5075027;28;20587;-68
2023/07/31 02:25:12;;;;;;;8.98;4.32;;;;;;;;;;5072416;28;20019;-68
2023/07/31 02:27:38;;;;;;;7.45;4.03;;;;;;;;;;5068693;28;20032;-68
2023/07/31 02:30:03;;;;;;;6.70;3.47;;;;;;;;;;5075663;28;20055;-67
2023/07/31 02:32:28;;;;;;;7.75;3.50;;;;;;;;;;5071837;28;20020;-68
2023/07/31 02:34:53;;;;;;;5.32;3.00;;;;;;;;;;5072558;28;20032;-67
2023/07/31 02:37:19;;;;;;;6.32;3.28;;;;;;;;;;5071568;28;20051;-68
2023/07/31 02:39:44;;;;;;;5.28;3.28;;;;;;;;;;5074490;28;20029;-68
2023/07/31 02:42:09;;;;;;;5.82;3.30;;;;;;;;;;5076752;28;20111;-67
2023/07/31 02:44:34;;;;;;;8.43;3.75;;;;;;;;;;5072281;28;20455;-68
2023/07/31 02:46:59;;;;;;;6.70;3.45;;;;;;;;;;5071677;28;20033;-68
2023/07/31 02:49:25;;;;;;;7.40;4.05;;;;;;;;;;5071452;28;20510;-68
2023/07/31 02:51:50;;;;;;;9.25;4.10;;;;;;;;;;5067304;28;20020;-68
2023/07/31 02:54:15;;;;;;;10.32;3.83;;;;;;;;;;5071863;28;20464;-68
2023/07/31 02:56:40;;;;;;;7.82;4.07;;;;;;;;;;5072531;28;20371;-69
2023/07/31 02:59:06;;;;;;;7.40;4.22;;;;;;;;;;5071041;28;20086;-68
2023/07/31 03:01:31;;;;;;;7.07;4.00;;;;;;;;;;5070204;28;20016;-68
2023/07/31 03:03:56;;;;;;;7.40;3.95;;;;;;;;;;5075259;28;20052;-68
2023/07/31 03:06:22;;;;;;;11.35;4.00;;;;;;;;;;5071754;28;20020;-68
2023/07/31 03:08:47;;;;;;;8.07;4.10;;;;;;;;;;5074113;28;20067;-69
2023/07/31 03:11:12;;;;;;;7.85;4.22;;;;;;;;;;5073324;28;20448;-69
2023/07/31 03:13:37;;;;;;;8.38;3.67;;;;;;;;;;5070906;28;20102;-68
2023/07/31 03:16:03;;;;;;;7.68;3.90;;;;;;;;;;5074844;28;20028;-69
2023/07/31 03:18:28;;;;;;;7.55;3.55;;;;;;;;;;5071938;28;20421;-68
2023/07/31 03:20:53;;;;;;;7.30;3.65;;;;;;;;;;5071576;28;20024;-69
2023/07/31 03:23:18;;;;;;;5.82;3.55;;;;;;;;;;5068940;28;20052;-69
2023/07/31 03:26:00;;;;;;;7.60;2.92;;;;;;;;;;5072236;28;20020;-68
2023/07/31 03:28:25;;;;;;;6.85;3.50;;;;;;;;;;5072245;28;20341;-69
2023/07/31 03:30:51;;;;;;;8.88;3.58;;;;;;;;;;5073973;28;20119;-68
2023/07/31 03:33:16;;;;;;;6.65;3.40;;;;;;;;;;5073875;28;20590;-69
2023/07/31 03:35:42;;;;;;;5.80;3.63;;;;;;;;;;5069954;28;20023;-68
2023/07/31 03:38:07;;;;;;;5.30;2.80;;;;;;;;;;5075902;28;20036;-69
2023/07/31 03:40:32;;;;;;;8.30;2.85;;;;;;;;;;5074326;28;20021;-69
2023/07/31 03:42:57;;;;;;;6.05;3.10;;;;;;;;;;5071516;28;20056;-70
2023/07/31 03:45:23;;;;;;;4.82;2.75;;;;;;;;;;5072148;28;20024;-69
2023/07/31 03:47:48;;;;;;;5.55;2.38;;;;;;;;;;5072554;28;20035;-69
2023/07/31 03:50:13;;;;;;;6.50;2.80;;;;;;;;;;5070795;28;20021;-69
2023/07/31 03:52:38;;;;;;;5.55;2.90;;;;;;;;;;5068960;28;20009;-70
2023/07/31 03:55:04;;;;;;;5.93;2.95;;;;;;;;;;5072243;28;20017;-70
2023/07/31 03:57:29;;;;;;;5.75;3.00;;;;;;;;;;5071848;28;20074;-70
2023/07/31 03:59:54;;;;;;;6.65;3.15;;;;;;;;;;5071701;28;20123;-69
2023/07/31 04:02:20;;;;;;;7.10;3.17;;;;;;;;;;5074157;28;20472;-69
2023/07/31 04:04:45;;;;;;;6.65;3.20;;;;;;;;;;5076222;28;20024;-70
2023/07/31 04:07:10;;;;;;;6.57;3.15;;;;;;;;;;5073281;28;20052;-69
2023/07/31 04:09:35;;;;;;;6.20;2.58;;;;;;;;;;5067729;28;20020;-69
2023/07/31 04:12:01;;;;;;;8.18;2.88;;;;;;;;;;5073100;28;20039;-69
2023/07/31 04:14:26;;;;;;;5.05;2.35;;;;;;;;;;5075226;28;20031;-69
2023/07/31 04:16:52;;;;;;;4.43;1.88;;;;;;;;;;5073465;28;20062;-69
2023/07/31 04:19:17;;;;;;;10.55;2.58;;;;;;;;;;5067135;28;20078;-69
2023/07/31 04:21:43;;;;;;;5.38;1.80;;;;;;;;;;5070931;28;20024;-68
2023/07/31 04:24:08;;;;;;;4.95;2.00;;;;;;;;;;5070982;28;20029;-68
2023/07/31 04:26:33;;;;;;;4.55;1.90;;;;;;;;;;5072466;28;20372;-69
2023/07/31 04:28:58;;;;;;;4.53;1.55;;;;;;;;;;5076967;28;20048;-69
2023/07/31 04:31:24;;;;;;;4.53;1.80;;;;;;;;;;5075449;28;20020;-68
2023/07/31 04:33:49;;;;;;;4.22;2.10;;;;;;;;;;5075365;28;20099;-68
2023/07/31 04:36:14;;;;;;;6.03;1.98;;;;;;;;;;5074854;28;20575;-68
2023/07/31 04:38:41;;;;;;;4.18;1.85;;;;;;;;;;5074668;28;20016;-68
2023/07/31 04:41:06;;;;;;;5.95;2.30;;;;;;;;;;5075355;28;20027;-69
2023/07/31 04:43:31;;;;;;;3.92;1.95;;;;;;;;;;5075412;28;20028;-68
2023/07/31 04:45:57;;;;;;;4.38;1.90;;;;;;;;;;5073604;28;20446;-68
2023/07/31 04:48:23;;;;;;;3.85;1.92;;;;;;;;;;5075072;28;20016;-68
2023/07/31 04:50:48;;;;;;;4.07;1.80;;;;;;;;;;5076656;28;20020;-68
2023/07/31 04:53:13;;;;;;;6.75;2.13;;;;;;;;;;5073952;28;20058;-68
2023/07/31 04:55:39;;;;;;;6.30;2.28;;;;;;;;;;5073853;28;20123;-69
2023/07/31 04:58:04;;;;;;;4.18;2.10;;;;;;;;;;5074291;28;20040;-69
2023/07/31 05:00:29;;;;;;;4.25;2.20;;;;;;;;;;5073504;28;20016;-68
2023/07/31 05:02:54;;;;;;;3.88;1.63;;;;;;;;;;5074224;28;20048;-69
2023/07/31 05:05:20;;;;;;;5.05;1.75;;;;;;;;;;5076261;28;20036;-68
2023/07/31 05:07:45;;;;;;;4.28;1.75;;;;;;;;;;5072819;28;20025;-69
2023/07/31 05:10:10;;;;;;;3.58;1.73;;;;;;;;;;5073739;28;20028;-69
2023/07/31 05:12:35;;;;;;;4.28;1.80;;;;;;;;;;5068495;28;20020;-69
2023/07/31 05:15:01;;;;;;;3.95;1.60;;;;;;;;;;5071949;28;20102;-68
2023/07/31 05:17:26;;;;;;;3.67;1.63;;;;;;;;;;5071492;28;20079;-68
2023/07/31 05:19:51;;;;;;;3.53;1.65;;;;;;;;;;5073250;28;20032;-69
2023/07/31 05:22:16;;;;;;;3.35;1.60;;;;;;;;;;5073720;28;20037;-69
2023/07/31 05:24:42;;;;;;;4.28;1.90;;;;;;;;;;5073998;28;20086;-69
2023/07/31 05:27:07;;;;;;;4.78;1.80;;;;;;;;;;5072455;28;20107;-69
2023/07/31 05:29:32;;;;;;;3.80;2.00;;;;;;;;;;5073375;28;20032;-69
2023/07/31 05:31:57;;;;;;;4.35;1.90;;;;;;;;;;5072724;28;20035;-69
2023/07/31 05:34:23;;;;;;;2.95;1.63;;;;;;;;;;5071659;28;20545;-70
2023/07/31 05:36:48;;;;;;;2.50;1.30;;;;;;;;;;5073019;28;20541;-69
2023/07/31 05:39:13;;;;;;;2.42;1.23;;;;;;;;;;5070672;28;20368;-68
2023/07/31 05:41:38;;;;;;;2.90;1.25;;;;;;;;;;5072286;28;20384;-69
2023/07/31 05:44:04;;;;;;;2.95;1.30;;;;;;;;;;5072476;28;20024;-68
2023/07/31 05:46:31;;;;;;;3.42;1.30;;;;;;;;;;5069630;28;20047;-69
2023/07/31 05:48:56;;;;;;;3.40;1.30;;;;;;;;;;5073124;28;20036;-68
2023/07/31 05:51:21;;;;;;;4.75;1.83;;;;;;;;;;5070932;28;20028;-68
2023/07/31 05:53:46;;;;;;;2.90;1.40;;;;;;;;;;5072269;28;20074;-69
2023/07/31 05:56:11;;;;;;;4.40;1.88;;;;;;;;;;5072669;28;20020;-69
2023/07/31 05:58:37;;;;;;;4.82;1.90;;;;;;;;;;5071827;28;20103;-70
2023/07/31 06:01:02;;;;;;;6.95;2.40;;;;;;;;;;5072001;28;20071;-69
2023/07/31 06:03:27;;;;;;;6.40;2.30;;;;;;;;;;5070241;28;20446;-69
2023/07/31 06:05:52;;;;;;;5.00;1.98;;;;;;;;;;5071854;28;20024;-68
2023/07/31 06:08:18;;;;;;;8.27;2.28;;;;;;;;;;5070624;28;20025;-67
2023/07/31 06:10:43;;;;;;;6.97;2.00;;;;;;;;;;5072537;28;20044;-69
2023/07/31 06:13:09;;;;;;;5.82;2.03;;;;;;;;;;5071454;28;20017;-67
2023/07/31 06:15:34;;;;;;;5.50;2.25;;;;;;;;;;5072871;28;20380;-66
2023/07/31 06:18:01;;;;;;;6.43;2.55;;;;;;;;;;5072167;28;20025;-65
2023/07/31 06:20:27;;;;;;;8.02;3.15;;;;;;;;;;5071798;28;20048;-66
2023/07/31 06:22:52;;;;;;;8.55;3.05;;;;;;;;;;5072500;28;20555;-66
2023/07/31 06:25:17;;;;;;;8.35;3.17;;;;;;;;;;5070642;28;20438;-65
2023/07/31 06:27:42;;;;;;;7.45;3.10;;;;;;;;;;5072358;28;20027;-66
2023/07/31 06:30:08;;;;;;;9.10;3.72;;;;;;;;;;5072615;28;20460;-65
2023/07/31 06:32:33;;;;;;;10.77;4.47;;;;;;;;;;5072436;28;20020;-65
2023/07/31 06:34:58;;;;;;;13.32;4.60;;;;;;;;;;5072323;28;20384;-65
2023/07/31 06:37:24;;;;;;;9.43;4.20;;;;;;;;;;5072640;28;20024;-64
2023/07/31 06:39:49;;;;;;;14.57;5.20;;;;;;;;;;5072239;28;20024;-65
2023/07/31 06:42:14;;;;;;;16.38;5.45;;;;;;;;;;5071921;28;20052;-67
2023/07/31 06:44:39;;;;;;;12.85;5.50;;;;;;;;;;5072098;28;20020;-65
2023/07/31 06:47:05;;;;;;;14.80;6.55;;;;;;;;;;5072100;28;20020;-66
2023/07/31 06:49:30;;;;;;;23.27;7.53;;;;;;;;;;5071780;28;20383;-66
2023/07/31 06:51:55;;;;;;;15.70;6.45;;;;;;;;;;5071898;28;20369;-65
2023/07/31 06:54:20;;;;;;;19.65;6.95;;;;;;;;;;5072438;28;20024;-66
2023/07/31 06:56:46;;;;;;;24.67;8.32;;;;;;;;;;5071908;28;20020;-64
2023/07/31 06:59:11;;;;;;;20.77;7.55;;;;;;;;;;5071817;28;20031;-65
2023/07/31 07:01:36;;;;;;;21.05;8.20;;;;;;;;;;5071902;28;20031;-66
2023/07/31 07:04:01;;;;;;;19.33;7.75;;;;;;;;;;5071594;28;20080;-64
2023/07/31 07:06:27;;;;;;;22.50;7.70;;;;;;;;;;5072003;28;20086;-65
2023/07/31 07:08:52;;;;;;;25.20;9.27;;;;;;;;;;5072347;28;20021;-65
2023/07/31 07:11:17;;;;;;;23.08;9.00;;;;;;;;;;5071966;28;20025;-65
2023/07/31 07:13:42;;;;;;;29.92;10.43;;;;;;;;;;5070840;28;20024;-65
2023/07/31 07:16:08;;;;;;;20.05;8.32;;;;;;;;;;5068480;28;20415;-67
2023/07/31 07:18:33;;;;;;;21.95;8.73;;;;;;;;;;5072219;28;20068;-68
2023/07/31 07:20:58;;;;;;;25.05;8.77;;;;;;;;;;5071958;28;20028;-67
2023/07/31 07:23:24;;;;;;;30.90;9.20;;;;;;;;;;5070672;28;20035;-68
2023/07/31 07:25:49;;;;;;;24.27;7.70;;;;;;;;;;5071988;28;20055;-66
2023/07/31 07:28:14;;;;;;;22.08;7.93;;;;;;;;;;5072276;28;20099;-66
2023/07/31 07:30:39;;;;;;;18.25;7.40;;;;;;;;;;5072005;28;20008;-66
2023/07/31 07:33:05;;;;;;;24.10;7.60;;;;;;;;;;5072678;28;20051;-66
2023/07/31 07:35:32;;;;;;;16.13;5.93;;;;;;;;;;5072633;28;20017;-67
2023/07/31 07:37:58;;;;;;;18.35;6.70;;;;;;;;;;5072011;28;20108;-66
2023/07/31 07:40:23;;;;;;;18.10;6.38;;;;;;;;;;5070302;28;20478;-66
2023/07/31 07:42:49;;;;;;;18.65;6.90;;;;;;;;;;5070262;28;20013;-66
2023/07/31 07:45:14;;;;;;;17.00;6.70;;;;;;;;;;5073091;28;20008;-66
2023/07/31 07:47:40;;;;;;;21.55;8.18;;;;;;;;;;5072473;28;20092;-67
2023/07/31 07:50:06;;;;;;;16.67;6.90;;;;;;;;;;5072034;28;20070;-67
2023/07/31 07:52:31;;;;;;;21.48;6.75;;;;;;;;;;5072465;28;20027;-67
2023/07/31 07:54:56;;;;;;;19.38;7.03;;;;;;;;;;5072082;28;20098;-67
2023/07/31 07:57:21;;;;;;;16.23;6.82;;;;;;;;;;5072099;28;20392;-67
2023/07/31 07:59:47;;;;;;;16.92;6.82;;;;;;;;;;5069741;28;20025;-66
2023/07/31 08:02:12;;;;;;;18.10;5.55;;;;;;;;;;5074379;28;20028;-67
2023/07/31 08:04:37;;;;;;;21.88;6.63;;;;;;;;;;5075781;28;20020;-67
2023/07/31 08:07:03;;;;;;;24.85;7.38;;;;;;;;;;5075601;28;20064;-66
2023/07/31 08:09:28;;;;;;;18.80;7.10;;;;;;;;;;5075609;28;20384;-66
2023/07/31 08:11:54;;;;;;;16.73;6.60;;;;;;;;;;5075640;28;20111;-66
2023/07/31 08:14:19;;;;;;;17.42;6.07;;;;;;;;;;5075590;28;20024;-66
2023/07/31 08:16:45;;;;;;;15.93;6.30;;;;;;;;;;5074349;28;20021;-67
2023/07/31 08:19:10;;;;;;;16.42;6.03;;;;;;;;;;5075518;28;20069;-66
2023/07/31 08:21:36;;;;;;;11.82;5.15;;;;;;;;;;5073862;28;20028;-66
2023/07/31 08:24:01;;;;;;;11.90;5.35;;;;;;;;;;5071835;28;20048;-66
2023/07/31 08:26:26;;;;;;;13.45;4.65;;;;;;;;;;5075006;28;20059;-64
2023/07/31 08:28:51;;;;;;;13.27;5.32;;;;;;;;;;5074979;28;20043;-63
2023/07/31 08:31:18;;;;;;;11.13;4.25;;;;;;;;;;5074799;28;20537;-64
2023/07/31 08:33:43;;;;;;;9.55;4.38;;;;;;;;;;5074985;28;20510;-63
2023/07/31 08:36:08;;;;;;;11.35;4.60;;;;;;;;;;5074937;28;20020;-63
2023/07/31 08:38:34;;;;;;;8.93;4.03;;;;;;;;;;5074608;28;20020;-63
2023/07/31 08:40:59;;;;;;;11.70;4.57;;;;;;;;;;5072954;28;20152;-63
2023/07/31 08:43:27;;;;;;;12.23;4.15;;;;;;;;;;5074881;28;20101;-63
2023/07/31 08:45:53;;;;;;;11.68;4.00;;;;;;;;;;5074713;28;20032;-63
2023/07/31 08:48:19;;;;;;;10.65;4.50;;;;;;;;;;5074058;28;20028;-65
2023/07/31 08:50:45;;;;;;;11.38;3.90;;;;;;;;;;5074468;28;20027;-64
2023/07/31 08:53:10;;;;;;;15.95;5.05;;;;;;;;;;5074608;28;20017;-65
2023/07/31 08:55:36;;;;;;;13.48;4.85;;;;;;;;;;5074454;28;20016;-63
2023/07/31 08:58:02;;;;;;;10.43;3.75;;;;;;;;;;5072030;28;20028;-64
2023/07/31 09:00:28;;;;;;;9.35;3.78;;;;;;;;;;5074546;28;20021;-63
2023/07/31 09:02:56;;;;;;;13.05;4.28;;;;;;;;;;5073653;28;20041;-63
2023/07/31 09:05:22;;;;;;;10.35;3.83;;;;;;;;;;5073877;28;20480;-64
2023/07/31 09:07:49;;;;;;;9.05;3.08;;;;;;;;;;5073827;28;20029;-63
2023/07/31 09:10:14;;;;;;;9.27;3.38;;;;;;;;;;5074341;28;20518;-63
2023/07/31 09:12:40;;;;;;;9.25;3.42;;;;;;;;;;5073837;28;20024;-64
2023/07/31 09:15:05;;;;;;;9.05;3.30;;;;;;;;;;5073922;28;20043;-64
2023/07/31 09:17:32;;;;;;;9.13;3.72;;;;;;;;;;5074072;28;20384;-64
2023/07/31 09:19:58;;;;;;;7.47;3.15;;;;;;;;;;5073720;28;20028;-64
2023/07/31 09:22:33;;;;;;;7.47;2.80;;;;;;;;;;5073723;28;20058;-62
2023/07/31 09:25:13;;;;;;;6.55;2.35;;;;;;;;;;5071144;28;20060;-64
2023/07/31 09:27:47;;;;;;;9.50;2.88;;;;;;;;;;5073615;28;20126;-63
2023/07/31 09:30:13;;;;;;;7.47;2.72;;;;;;;;;;5073687;28;20032;-64
2023/07/31 09:32:38;;;;;;;6.75;2.05;;;;;;;;;;5070597;28;20020;-63
2023/07/31 09:35:23;;;;;;;6.55;2.30;;;;;;;;;;5072573;28;20052;-64
2023/07/31 09:37:49;;;;;;;8.80;2.30;;;;;;;;;;5074052;28;20524;-63
2023/07/31 09:40:24;;;;;;;4.63;1.73;;;;;;;;;;5073603;28;20100;-66
2023/07/31 09:42:50;;;;;;;4.13;1.85;;;;;;;;;;5070143;28;20024;-62
2023/07/31 09:45:15;;;;;;;4.80;1.83;;;;;;;;;;5075277;28;20366;-65
2023/07/31 09:47:46;;;;;;;4.13;1.58;;;;;;;;;;5074422;28;20031;-64
2023/07/31 09:50:11;;;;;;;4.85;1.75;;;;;;;;;;5070839;28;20414;-64
2023/07/31 09:52:38;;;;;;;5.57;1.70;;;;;;;;;;5073831;28;20107;-65
2023/07/31 09:55:03;;;;;;;3.28;1.30;;;;;;;;;;5073317;28;20023;-63
2023/07/31 09:57:29;;;;;;;3.63;1.30;;;;;;;;;;5073364;28;20025;-64
2023/07/31 09:59:55;;;;;;;4.82;1.60;;;;;;;;;;5072462;28;20146;-63
2023/07/31 10:02:21;;;;;;;3.72;0.98;;;;;;;;;;5072986;28;20040;-63
2023/07/31 10:04:48;;;;;;;2.55;1.08;;;;;;;;;;5071916;28;20017;-64
2023/07/31 10:07:15;;;;;;;2.15;1.00;;;;;;;;;;5069136;28;20020;-64
2023/07/31 10:09:41;;;;;;;3.65;1.30;;;;;;;;;;5073466;28;20510;-64
2023/07/31 10:12:09;;;;;;;2.15;0.82;;;;;;;;;;5072307;28;20036;-64
2023/07/31 10:14:35;;;;;;;2.40;1.05;;;;;;;;;;5072318;28;20017;-66
2023/07/31 10:17:00;;;;;;;2.45;1.08;;;;;;;;;;5073415;28;20043;-65
2023/07/31 10:19:26;;;;;;;3.58;1.30;;;;;;;;;;5072607;28;20020;-65
2023/07/31 10:21:52;;;;;;;2.10;0.95;;;;;;;;;;5072733;28;20482;-64
2023/07/31 10:24:17;;;;;;;3.03;1.00;;;;;;;;;;5072136;28;20049;-64
2023/07/31 10:26:45;;;;;;;2.25;1.02;;;;;;;;;;5072904;28;20023;-66
2023/07/31 10:29:10;;;;;;;2.50;1.20;;;;;;;;;;5072083;28;20027;-64
2023/07/31 10:31:36;;;;;;;2.70;1.20;;;;;;;;;;5072468;28;20016;-63
2023/07/31 10:34:02;;;;;;;2.35;1.20;;;;;;;;;;5072456;28;20016;-66
2023/07/31 10:36:28;;;;;;;2.33;1.02;;;;;;;;;;5072789;28;20483;-64
2023/07/31 10:38:55;;;;;;;2.30;1.10;;;;;;;;;;5072666;28;20051;-65
2023/07/31 10:41:27;;;;;;;2.75;0.77;;;;;;;;;;5072244;28;20082;-65
2023/07/31 10:43:54;;;;;;;1.95;1.00;;;;;;;;;;5072635;28;20017;-64
2023/07/31 10:46:20;;;;;;;2.70;1.00;;;;;;;;;;5073043;28;20380;-63
2023/07/31 10:48:45;;;;;;;1.85;0.75;;;;;;;;;;5090455;28;20009;-66
2023/07/31 10:51:15;;;;;;;2.42;0.90;;;;;;;;;;5095237;28;20043;-64
2023/07/31 10:53:41;;;;;;;1.73;0.90;;;;;;;;;;5096899;28;20043;-66
2023/07/31 10:56:07;;;;;;;2.75;0.88;;;;;;;;;;5096459;28;20005;-66
2023/07/31 10:58:33;;;;;;;2.42;1.02;;;;;;;;;;5093637;28;20012;-66
2023/07/31 11:01:07;;;;;;;1.20;0.80;;;;;;;;;;5094638;28;20383;-65
2023/07/31 11:03:44;;;;;;;1.40;0.70;;;;;;;;;;5094218;28;20518;-66
2023/07/31 11:06:10;;;;;;;2.28;0.70;;;;;;;;;;5095793;28;20028;-65
2023/07/31 11:08:40;;;;;;;1.85;0.80;;;;;;;;;;5095085;28;20025;-64
2023/07/31 11:11:07;;;;;;;1.60;0.80;;;;;;;;;;5094231;28;20027;-66
2023/07/31 11:13:42;;;;;;;1.58;0.60;;;;;;;;;;5093181;28;20101;-65
2023/07/31 11:16:07;;;;;;;1.10;0.70;;;;;;;;;;5092876;28;20017;-64
2023/07/31 11:18:32;;;;;;;0.95;0.68;;;;;;;;;;5092572;28;20024;-66
2023/07/31 11:20:58;;;;;;;1.42;0.70;;;;;;;;;;5094000;28;20031;-65
2023/07/31 11:23:23;;;;;;;0.73;0.55;;;;;;;;;;5093265;28;20013;-65
2023/07/31 11:25:49;;;;;;;1.45;0.80;;;;;;;;;;5090780;28;20020;-65
2023/07/31 11:28:15;;;;;;;1.88;0.70;;;;;;;;;;5094004;28;20017;-65
2023/07/31 11:30:41;;;;;;;1.15;0.80;;;;;;;;;;5093754;28;20027;-66
2023/07/31 11:33:08;;;;;;;1.60;0.90;;;;;;;;;;5092144;28;20027;-65
2023/07/31 11:35:33;;;;;;;1.90;1.00;;;;;;;;;;5088660;28;20016;-65
2023/07/31 11:37:59;;;;;;;1.40;0.90;;;;;;;;;;5091318;28;20048;-65
2023/07/31 11:40:37;;;;;;;1.58;0.82;;;;;;;;;;5093806;28;20012;-65
2023/07/31 11:43:04;;;;;;;1.90;0.90;;;;;;;;;;5096544;28;20031;-65
2023/07/31 11:45:29;;;;;;;2.88;0.95;;;;;;;;;;5095630;28;20017;-65
2023/07/31 11:47:55;;;;;;;1.45;0.75;;;;;;;;;;5095803;28;20024;-65
2023/07/31 11:50:21;;;;;;;2.63;1.20;;;;;;;;;;5097135;28;20021;-64
2023/07/31 11:52:48;;;;;;;2.33;0.98;;;;;;;;;;5096392;28;20023;-66
2023/07/31 11:55:15;;;;;;;2.60;1.00;;;;;;;;;;5097365;28;20023;-65
2023/07/31 11:57:41;;;;;;;3.17;1.30;;;;;;;;;;5091488;28;20032;-63
2023/07/31 12:00:08;;;;;;;3.85;1.45;;;;;;;;;;5082085;28;20067;-65
2023/07/31 12:02:33;;;;;;;2.05;1.08;;;;;;;;;;5079864;28;20479;-62
2023/07/31 12:04:59;;;;;;;2.42;1.25;;;;;;;;;;5077707;28;20032;-62
2023/07/31 12:07:24;;;;;;;4.28;1.17;;;;;;;;;;5084041;28;20451;-67
2023/07/31 12:09:56;;;;;;;3.03;1.23;;;;;;;;;;5081745;28;20021;-63
2023/07/31 12:12:22;;;;;;;2.25;1.10;;;;;;;;;;5078896;28;20364;-63
2023/07/31 12:14:48;;;;;;;2.65;1.20;;;;;;;;;;5078489;28;20017;-62
2023/07/31 12:17:14;;;;;;;2.58;1.40;;;;;;;;;;5077885;28;20381;-63
2023/07/31 12:19:39;;;;;;;2.50;1.40;;;;;;;;;;5076176;28;20024;-63
2023/07/31 12:22:11;;;;;;;2.80;1.40;;;;;;;;;;5079512;28;20051;-67
2023/07/31 12:24:37;;;;;;;3.03;1.52;;;;;;;;;;5080959;28;20023;-63
2023/07/31 12:27:08;;;;;;;3.45;1.60;;;;;;;;;;5081433;28;20025;-65
2023/07/31 12:29:34;;;;;;;6.22;1.48;;;;;;;;;;5081555;28;20408;-63
2023/07/31 12:31:59;;;;;;;7.75;2.05;;;;;;;;;;5077865;28;20017;-63
2023/07/31 12:34:25;;;;;;;4.00;1.88;;;;;;;;;;5075019;28;20046;-64
2023/07/31 12:36:52;;;;;;;3.40;1.80;;;;;;;;;;5075137;28;20029;-63
2023/07/31 12:39:17;;;;;;;4.43;1.98;;;;;;;;;;5074591;28;20055;-64
2023/07/31 12:41:42;;;;;;;3.88;1.35;;;;;;;;;;5074734;28;20056;-65
2023/07/31 12:44:07;;;;;;;3.80;1.98;;;;;;;;;;5074572;28;20020;-64
2023/07/31 12:46:33;;;;;;;3.70;2.00;;;;;;;;;;5074782;28;20017;-64
2023/07/31 12:48:58;;;;;;;4.40;2.22;;;;;;;;;;5074502;28;20100;-65
2023/07/31 12:51:23;;;;;;;5.72;2.10;;;;;;;;;;5074642;28;20023;-64
2023/07/31 12:53:48;;;;;;;4.88;2.42;;;;;;;;;;5074757;28;20127;-64
2023/07/31 12:56:14;;;;;;;4.20;2.00;;;;;;;;;;5071141;28;20070;-65
2023/07/31 12:58:39;;;;;;;4.35;2.10;;;;;;;;;;5075289;28;20025;-64
2023/07/31 13:01:05;;;;;;;3.30;1.95;;;;;;;;;;5074452;28;20020;-64
2023/07/31 13:03:31;;;;;;;4.38;2.20;;;;;;;;;;5074107;28;20382;-63
2023/07/31 13:05:56;;;;;;;8.02;2.35;;;;;;;;;;5074387;28;20107;-67
2023/07/31 13:08:21;;;;;;;5.72;2.70;;;;;;;;;;5074589;28;20044;-64
2023/07/31 13:10:46;;;;;;;3.63;2.22;;;;;;;;;;5073945;28;20492;-66
2023/07/31 13:13:12;;;;;;;4.05;2.45;;;;;;;;;;5073790;28;20044;-65
2023/07/31 13:15:37;;;;;;;4.75;2.83;;;;;;;;;;5073943;28;20024;-65
2023/07/31 13:18:02;;;;;;;4.72;2.92;;;;;;;;;;5073997;28;20013;-65
2023/07/31 13:20:27;;;;;;;4.57;2.78;;;;;;;;;;5073754;28;20016;-65
2023/07/31 13:22:53;;;;;;;5.05;3.10;;;;;;;;;;5074059;28;20016;-65
2023/07/31 13:25:18;;;;;;;5.95;3.17;;;;;;;;;;5073536;28;20372;-65
2023/07/31 13:27:43;;;;;;;7.40;4.07;;;;;;;;;;5073491;28;20016;-64
2023/07/31 13:30:09;;;;;;;4.35;2.92;;;;;;;;;;5071737;28;20016;-65
2023/07/31 13:32:38;;;;;;;7.45;3.28;;;;;;;;;;5071752;28;20017;-65
2023/07/31 13:35:03;;;;;;;5.03;2.97;;;;;;;;;;5073655;28;20020;-64
2023/07/31 13:37:29;;;;;;;5.53;3.08;;;;;;;;;;5073552;28;20020;-65
2023/07/31 13:39:54;;;;;;;5.78;3.20;;;;;;;;;;5071074;28;20036;-64
2023/07/31 13:42:19;;;;;;;5.70;3.22;;;;;;;;;;5072541;28;20077;-66
2023/07/31 13:44:44;;;;;;;7.45;3.40;;;;;;;;;;5072738;28;20070;-66
2023/07/31 13:47:10;;;;;;;5.22;3.40;;;;;;;;;;5072324;28;20016;-65
2023/07/31 13:49:35;;;;;;;5.60;3.40;;;;;;;;;;5073109;28;20017;-63
2023/07/31 13:52:01;;;;;;;5.63;3.50;;;;;;;;;;5073230;28;20027;-66
2023/07/31 13:54:26;;;;;;;6.70;3.38;;;;;;;;;;5073120;28;20040;-63
2023/07/31 13:56:52;;;;;;;7.65;3.75;;;;;;;;;;5072855;28;20468;-63
2023/07/31 13:59:17;;;;;;;5.95;3.33;;;;;;;;;;5072204;28;20020;-67
2023/07/31 14:01:46;;;;;;;6.60;3.50;;;;;;;;;;5073124;28;20024;-64
2023/07/31 14:04:12;;;;;;;5.55;3.50;;;;;;;;;;5071763;28;20071;-66
2023/07/31 14:06:37;;;;;;;5.38;3.65;;;;;;;;;;5073166;28;20718;-63
2023/07/31 14:09:02;;;;;;;5.85;3.50;;;;;;;;;;5070943;28;20035;-65
2023/07/31 14:11:27;;;;;;;5.28;3.35;;;;;;;;;;5072059;28;20017;-65
2023/07/31 14:13:53;;;;;;;5.80;3.40;;;;;;;;;;5073301;28;20024;-64
2023/07/31 14:16:18;;;;;;;7.53;3.50;;;;;;;;;;5072828;28;20052;-63
2023/07/31 14:18:45;;;;;;;4.60;3.10;;;;;;;;;;5072650;28;20039;-66
2023/07/31 14:21:10;;;;;;;7.10;3.92;;;;;;;;;;5068897;28;20062;-64
2023/07/31 14:23:35;;;;;;;7.28;3.40;;;;;;;;;;5072491;28;20106;-65
2023/07/31 14:26:01;;;;;;;7.85;3.40;;;;;;;;;;5072712;28;20020;-65
2023/07/31 14:28:26;;;;;;;5.32;2.97;;;;;;;;;;5072481;28;20013;-67
2023/07/31 14:30:51;;;;;;;7.68;2.97;;;;;;;;;;5072483;28;20028;-65
2023/07/31 14:33:16;;;;;;;5.82;2.92;;;;;;;;;;5072391;28;20020;-65
2023/07/31 14:35:42;;;;;;;4.95;2.70;;;;;;;;;;5072072;28;20025;-65